Time;durP1;ratioP1;P1;durP2;ratioP2;P2;SDS_P1;SDS_P2;PMS_P1;PMS_P2;Temp;Humidity;BMP_temperature;BMP_pressure;BME280_temperature;BME280_humidity;BME280_pressure;Samples;Min_cycle;Max_cycle;Signal;HPM_P1;HPM_P2
2021/12/09 00:01:47;;;;;;;164.50;76.13;;;1.00;99.90;;;;;;5054194;28;20445;-72
2021/12/09 00:04:17;;;;;;;184.35;83.30;;;1.00;99.90;;;;;;5053883;28;20079;-72
2021/12/09 00:06:44;;;;;;;179.20;79.80;;;1.00;99.90;;;;;;5053758;28;20031;-72
2021/12/09 00:09:14;;;;;;;156.63;69.35;;;1.00;99.90;;;;;;5053485;28;20035;-72
2021/12/09 00:11:44;;;;;;;137.90;62.20;;;1.00;99.90;;;;;;5053577;28;20497;-72
2021/12/09 00:14:13;;;;;;;138.90;63.33;;;1.00;99.90;;;;;;5053615;28;20044;-72
2021/12/09 00:16:38;;;;;;;141.07;61.95;;;1.10;99.90;;;;;;5053461;28;20025;-72
2021/12/09 00:19:04;;;;;;;235.43;88.78;;;1.10;99.90;;;;;;5053450;28;20032;-72
2021/12/09 00:21:30;;;;;;;195.20;81.13;;;1.10;99.90;;;;;;5053464;28;20021;-72
2021/12/09 00:23:56;;;;;;;293.35;111.82;;;1.10;99.90;;;;;;5053064;28;20029;-72
2021/12/09 00:26:22;;;;;;;161.10;71.70;;;1.10;99.90;;;;;;5053151;28;20052;-72
2021/12/09 00:28:48;;;;;;;152.07;70.05;;;1.10;99.90;;;;;;5053612;28;20058;-72
2021/12/09 00:31:15;;;;;;;157.38;64.82;;;1.10;99.90;;;;;;5053565;28;20110;-72
2021/12/09 00:33:44;;;;;;;156.95;69.45;;;1.10;99.90;;;;;;5053255;28;20017;-72
2021/12/09 00:36:11;;;;;;;137.98;60.92;;;1.10;99.90;;;;;;5053328;28;20545;-72
2021/12/09 00:38:40;;;;;;;151.70;67.53;;;1.10;99.90;;;;;;5052909;28;20168;-72
2021/12/09 00:41:12;;;;;;;124.65;58.53;;;1.20;99.90;;;;;;5052874;28;20041;-72
2021/12/09 00:43:39;;;;;;;125.60;60.33;;;1.10;99.90;;;;;;5053294;28;20610;-72
2021/12/09 00:46:05;;;;;;;142.73;68.22;;;1.10;99.90;;;;;;5052568;28;20021;-72
2021/12/09 00:48:31;;;;;;;130.98;59.65;;;1.20;99.90;;;;;;5052402;28;20471;-72
2021/12/09 00:51:00;;;;;;;114.80;54.22;;;1.20;99.90;;;;;;5052970;28;20013;-72
2021/12/09 00:53:26;;;;;;;112.15;50.45;;;1.20;99.90;;;;;;5053116;28;20021;-72
2021/12/09 00:55:53;;;;;;;103.28;48.95;;;1.20;99.90;;;;;;5052634;28;20032;-72
2021/12/09 00:58:19;;;;;;;168.65;70.45;;;1.20;99.90;;;;;;5052847;28;20755;-72
2021/12/09 01:00:45;;;;;;;141.80;61.42;;;1.30;99.90;;;;;;5053077;28;20025;-72
2021/12/09 01:03:11;;;;;;;138.55;63.55;;;1.30;99.90;;;;;;5052598;28;20028;-72
2021/12/09 01:05:37;;;;;;;121.70;56.58;;;1.30;99.90;;;;;;5053035;28;20017;-72
2021/12/09 01:08:03;;;;;;;125.07;55.47;;;1.30;99.90;;;;;;5052835;28;20036;-72
2021/12/09 01:10:29;;;;;;;116.35;54.45;;;1.30;99.90;;;;;;5052750;28;20119;-72
2021/12/09 01:12:56;;;;;;;129.27;58.50;;;1.30;99.90;;;;;;5052739;28;20017;-73
2021/12/09 01:15:23;;;;;;;162.25;69.45;;;1.30;99.90;;;;;;5052700;28;20020;-72
2021/12/09 01:17:49;;;;;;;142.20;65.32;;;1.30;99.90;;;;;;5052603;28;20108;-72
2021/12/09 01:20:18;;;;;;;129.45;61.30;;;1.30;99.90;;;;;;5052573;28;20464;-72
2021/12/09 01:22:45;;;;;;;126.82;59.42;;;1.30;99.90;;;;;;5052573;28;20108;-72
2021/12/09 01:25:14;;;;;;;126.63;59.70;;;1.30;99.90;;;;;;5052675;28;20751;-72
2021/12/09 01:27:43;;;;;;;127.80;57.17;;;1.40;99.90;;;;;;5052515;28;20029;-72
2021/12/09 01:30:15;;;;;;;123.05;56.78;;;1.40;99.90;;;;;;5052270;28;20048;-72
2021/12/09 01:32:47;;;;;;;116.90;54.97;;;1.40;99.90;;;;;;5052732;28;20094;-72
2021/12/09 01:35:14;;;;;;;118.55;53.95;;;1.40;99.90;;;;;;5052637;28;20033;-72
2021/12/09 01:37:40;;;;;;;117.53;53.88;;;1.50;99.90;;;;;;5052314;28;20410;-72
2021/12/09 01:40:08;;;;;;;120.47;55.60;;;1.50;99.90;;;;;;5052313;28;20067;-73
2021/12/09 01:42:35;;;;;;;135.98;57.92;;;1.60;99.90;;;;;;5052634;28;20471;-72
2021/12/09 01:45:01;;;;;;;113.82;51.92;;;1.70;99.90;;;;;;5052240;28;20021;-73
2021/12/09 01:47:27;;;;;;;110.07;50.70;;;1.70;99.90;;;;;;5052265;28;20507;-72
2021/12/09 01:49:52;;;;;;;143.90;58.55;;;1.70;99.90;;;;;;5052184;28;20121;-73
2021/12/09 01:52:18;;;;;;;128.38;56.13;;;1.80;99.90;;;;;;5052120;28;20025;-73
2021/12/09 01:54:44;;;;;;;222.57;84.03;;;1.80;99.90;;;;;;5052271;28;20033;-73
2021/12/09 01:57:10;;;;;;;165.48;65.65;;;1.80;99.90;;;;;;5052554;28;20104;-73
2021/12/09 01:59:36;;;;;;;138.82;61.38;;;1.90;99.90;;;;;;5052056;28;20029;-72
2021/12/09 02:02:02;;;;;;;137.90;62.47;;;1.90;99.90;;;;;;5055730;28;20021;-72
2021/12/09 02:04:28;;;;;;;137.38;61.78;;;1.90;99.90;;;;;;5056339;28;20047;-73
2021/12/09 02:06:53;;;;;;;144.82;63.40;;;1.90;99.90;;;;;;5056178;28;20110;-72
2021/12/09 02:09:19;;;;;;;130.88;57.53;;;1.90;99.90;;;;;;5055861;28;20072;-72
2021/12/09 02:11:46;;;;;;;127.22;58.55;;;1.90;99.90;;;;;;5055733;28;20025;-72
2021/12/09 02:14:13;;;;;;;146.20;60.97;;;1.80;99.90;;;;;;5056122;28;20025;-72
2021/12/09 02:16:39;;;;;;;146.18;60.17;;;1.90;99.90;;;;;;5055439;28;20025;-73
2021/12/09 02:19:05;;;;;;;124.60;54.95;;;1.90;99.90;;;;;;5055898;28;20132;-72
2021/12/09 02:21:34;;;;;;;126.07;55.20;;;1.90;99.90;;;;;;5056134;28;20025;-72
2021/12/09 02:24:04;;;;;;;127.07;53.15;;;1.90;99.90;;;;;;5056085;28;20029;-72
2021/12/09 02:26:36;;;;;;;114.90;50.78;;;1.90;99.90;;;;;;5056434;28;20028;-71
2021/12/09 02:29:04;;;;;;;106.97;47.58;;;1.90;99.90;;;;;;5056342;28;20036;-72
2021/12/09 02:31:30;;;;;;;107.63;50.95;;;2.00;99.90;;;;;;5056405;28;20021;-72
2021/12/09 02:33:57;;;;;;;113.28;52.10;;;2.00;99.90;;;;;;5056033;28;20074;-72
2021/12/09 02:36:23;;;;;;;136.18;57.38;;;2.00;99.90;;;;;;5056388;28;20039;-72
2021/12/09 02:38:50;;;;;;;113.72;51.10;;;2.00;99.90;;;;;;5056370;28;20025;-72
2021/12/09 02:41:20;;;;;;;124.32;52.55;;;2.00;99.90;;;;;;5055786;28;20047;-73
2021/12/09 02:43:48;;;;;;;111.03;48.50;;;2.00;99.90;;;;;;5056443;28;20016;-72
2021/12/09 02:46:16;;;;;;;99.25;45.70;;;2.00;99.90;;;;;;5056203;28;20020;-72
2021/12/09 02:48:42;;;;;;;105.13;46.30;;;2.00;99.90;;;;;;5056174;28;20079;-72
2021/12/09 02:51:09;;;;;;;116.75;48.90;;;2.00;99.90;;;;;;5055965;28;20139;-72
2021/12/09 02:53:35;;;;;;;94.03;43.90;;;2.00;99.90;;;;;;5055092;28;20109;-72
2021/12/09 02:56:02;;;;;;;86.47;39.53;;;2.00;99.90;;;;;;5056050;28;20025;-72
2021/12/09 02:58:27;;;;;;;89.25;39.00;;;2.00;99.90;;;;;;5055736;28;20062;-72
2021/12/09 03:00:58;;;;;;;93.75;38.25;;;2.10;99.90;;;;;;5055855;28;20021;-72
2021/12/09 03:03:25;;;;;;;89.97;38.67;;;2.10;99.90;;;;;;5055585;28;20538;-71
2021/12/09 03:05:56;;;;;;;97.35;39.25;;;2.10;99.90;;;;;;5055301;28;20474;-73
2021/12/09 03:08:23;;;;;;;99.95;42.25;;;2.10;99.90;;;;;;5055639;28;20078;-72
2021/12/09 03:10:49;;;;;;;111.38;44.20;;;2.10;99.90;;;;;;5055427;28;20025;-72
2021/12/09 03:13:17;;;;;;;110.05;41.53;;;2.10;99.90;;;;;;5054674;28;20032;-72
2021/12/09 03:15:43;;;;;;;106.88;44.67;;;2.20;99.90;;;;;;5055308;28;20071;-72
2021/12/09 03:18:08;;;;;;;102.75;42.53;;;2.20;99.90;;;;;;5055111;28;20341;-72
2021/12/09 03:20:34;;;;;;;91.57;38.67;;;2.30;99.90;;;;;;5055395;28;20021;-71
2021/12/09 03:23:00;;;;;;;77.22;32.78;;;2.30;99.90;;;;;;5054151;28;20017;-71
2021/12/09 03:25:26;;;;;;;75.88;33.30;;;2.30;99.90;;;;;;5055213;28;20076;-72
2021/12/09 03:27:52;;;;;;;103.85;41.53;;;2.30;99.90;;;;;;5055315;28;20471;-72
2021/12/09 03:30:19;;;;;;;81.82;38.45;;;2.40;99.90;;;;;;5055262;28;20025;-71
2021/12/09 03:32:46;;;;;;;77.35;34.92;;;2.40;99.90;;;;;;5055431;28;20051;-71
2021/12/09 03:35:13;;;;;;;68.55;34.20;;;2.50;99.90;;;;;;5055621;28;20500;-71
2021/12/09 03:37:41;;;;;;;90.80;37.38;;;2.50;99.90;;;;;;5055204;28;20032;-71
2021/12/09 03:40:08;;;;;;;82.28;35.78;;;2.50;99.90;;;;;;5055365;28;20108;-71
2021/12/09 03:42:36;;;;;;;70.50;33.35;;;2.50;99.90;;;;;;5055014;28;20374;-71
2021/12/09 03:45:04;;;;;;;83.07;37.17;;;2.50;99.90;;;;;;5054917;28;20032;-71
2021/12/09 03:47:31;;;;;;;75.97;34.70;;;2.50;99.90;;;;;;5054573;28;20021;-71
2021/12/09 03:49:58;;;;;;;82.20;36.92;;;2.50;99.90;;;;;;5054803;28;20091;-71
2021/12/09 03:52:26;;;;;;;91.60;41.00;;;2.50;99.90;;;;;;5054901;28;20116;-72
2021/12/09 03:54:52;;;;;;;78.00;35.42;;;2.50;99.90;;;;;;5054451;28;20021;-71
2021/12/09 03:57:18;;;;;;;89.80;38.67;;;2.50;99.90;;;;;;5054768;28;20021;-71
2021/12/09 03:59:45;;;;;;;79.15;35.92;;;2.50;99.90;;;;;;5054840;28;20044;-72
2021/12/09 04:02:12;;;;;;;66.13;30.10;;;2.50;99.90;;;;;;5054547;28;20021;-71
2021/12/09 04:04:38;;;;;;;72.18;31.80;;;2.50;99.90;;;;;;5054921;28;20448;-71
2021/12/09 04:07:05;;;;;;;68.20;31.02;;;2.50;99.90;;;;;;5054245;28;20116;-72
2021/12/09 04:09:31;;;;;;;60.63;30.38;;;2.50;99.90;;;;;;5054478;28;20025;-71
2021/12/09 04:11:57;;;;;;;63.67;29.13;;;2.60;99.90;;;;;;5054558;28;20017;-71
2021/12/09 04:14:23;;;;;;;58.97;27.23;;;2.60;99.90;;;;;;5054030;28;20047;-71
2021/12/09 04:16:49;;;;;;;54.05;25.70;;;2.70;99.90;;;;;;5054605;28;20025;-71
2021/12/09 04:19:15;;;;;;;54.22;24.77;;;2.70;99.90;;;;;;5054492;28;20046;-72
2021/12/09 04:21:43;;;;;;;62.33;29.17;;;2.80;99.90;;;;;;5054098;28;20371;-71
2021/12/09 04:24:11;;;;;;;58.72;28.63;;;2.80;99.90;;;;;;5054205;28;20021;-71
2021/12/09 04:26:40;;;;;;;65.85;29.15;;;2.80;99.90;;;;;;5054185;28;20028;-72
2021/12/09 04:29:07;;;;;;;57.70;27.63;;;2.80;99.90;;;;;;5054149;28;20033;-72
2021/12/09 04:31:34;;;;;;;56.72;27.08;;;2.80;99.90;;;;;;5053605;28;20475;-72
2021/12/09 04:34:00;;;;;;;47.42;24.65;;;2.90;99.90;;;;;;5053936;28;20024;-72
2021/12/09 04:36:26;;;;;;;55.67;26.33;;;2.90;99.90;;;;;;5053979;28;20021;-72
2021/12/09 04:38:53;;;;;;;56.22;25.90;;;2.90;99.90;;;;;;5053997;28;20025;-72
2021/12/09 04:41:19;;;;;;;67.55;26.50;;;2.90;99.90;;;;;;5052548;28;20098;-71
2021/12/09 04:43:45;;;;;;;66.43;26.40;;;2.90;99.90;;;;;;5053444;28;20016;-71
2021/12/09 04:46:12;;;;;;;57.50;26.05;;;2.90;99.90;;;;;;5054186;28;20108;-72
2021/12/09 04:48:39;;;;;;;58.50;27.35;;;2.90;99.90;;;;;;5053950;28;20021;-72
2021/12/09 04:51:06;;;;;;;72.88;32.83;;;2.90;99.90;;;;;;5053727;28;20067;-72
2021/12/09 04:53:32;;;;;;;117.78;53.92;;;2.90;99.90;;;;;;5053876;28;20012;-71
2021/12/09 04:55:58;;;;;;;98.60;40.50;;;2.90;99.90;;;;;;5053291;28;20025;-72
2021/12/09 04:58:25;;;;;;;105.32;43.33;;;2.90;99.90;;;;;;5054131;28;20062;-72
2021/12/09 05:00:53;;;;;;;95.53;41.45;;;2.90;99.90;;;;;;5052812;28;20033;-71
2021/12/09 05:03:19;;;;;;;79.75;34.72;;;2.90;99.90;;;;;;5053729;28;20017;-71
2021/12/09 05:05:48;;;;;;;72.30;30.63;;;2.90;99.90;;;;;;5053337;28;20029;-72
2021/12/09 05:08:17;;;;;;;72.38;32.13;;;2.90;99.90;;;;;;5053603;28;20085;-72
2021/12/09 05:13:29;;;;;;;75.32;33.58;;;3.00;99.90;;;;;;5053418;28;20355;-71
2021/12/09 05:15:56;;;;;;;73.82;36.67;;;3.00;99.90;;;;;;5053007;28;20048;-71
2021/12/09 05:18:24;;;;;;;81.90;35.70;;;3.00;99.90;;;;;;5053104;28;20021;-71
2021/12/09 05:20:50;;;;;;;100.03;45.38;;;3.00;99.90;;;;;;5053756;28;20029;-71
2021/12/09 05:23:19;;;;;;;94.53;42.30;;;3.00;99.90;;;;;;5053039;28;20074;-71
2021/12/09 05:25:45;;;;;;;107.93;46.63;;;3.10;99.90;;;;;;5053485;28;20024;-71
2021/12/09 05:28:15;;;;;;;96.47;44.15;;;3.10;99.90;;;;;;5052340;28;20025;-71
2021/12/09 05:33:30;;;;;;;105.43;46.80;;;3.20;99.90;;;;;;5053416;28;20466;-72
2021/12/09 05:35:55;;;;;;;132.88;58.03;;;3.20;99.90;;;;;;5055119;28;20032;-72
2021/12/09 05:38:22;;;;;;;139.60;62.03;;;3.20;99.90;;;;;;5057386;28;20021;-72
2021/12/09 05:40:48;;;;;;;141.70;62.75;;;3.20;99.90;;;;;;5057159;28;20108;-72
2021/12/09 05:43:15;;;;;;;210.32;86.13;;;3.20;99.90;;;;;;5057121;28;20025;-72
2021/12/09 05:45:42;;;;;;;246.45;94.15;;;3.20;99.90;;;;;;5056980;28;20017;-72
2021/12/09 05:48:10;;;;;;;143.68;61.33;;;3.20;99.90;;;;;;5057773;28;20032;-72
2021/12/09 05:50:37;;;;;;;171.73;69.57;;;3.20;99.90;;;;;;5056925;28;20021;-72
2021/12/09 05:53:03;;;;;;;137.63;56.90;;;3.20;99.90;;;;;;5057019;28;20028;-72
2021/12/09 05:55:29;;;;;;;120.60;53.03;;;3.20;99.90;;;;;;5056842;28;20021;-72
2021/12/09 05:57:55;;;;;;;132.07;55.50;;;3.20;99.90;;;;;;5057280;28;20044;-72
2021/12/09 06:00:21;;;;;;;123.18;53.17;;;3.20;99.90;;;;;;5056373;28;20045;-72
2021/12/09 06:02:47;;;;;;;136.05;58.58;;;3.20;99.90;;;;;;5057202;28;20029;-72
2021/12/09 06:05:13;;;;;;;282.75;125.50;;;3.30;99.90;;;;;;5055754;28;20010;-72
2021/12/09 06:07:38;;;;;;;163.43;72.50;;;3.30;99.90;;;;;;5056933;28;20463;-72
2021/12/09 06:10:05;;;;;;;213.55;89.47;;;3.30;99.90;;;;;;5056895;28;20040;-72
2021/12/09 06:12:32;;;;;;;348.92;150.18;;;3.30;99.90;;;;;;5057318;28;20025;-72
2021/12/09 06:14:58;;;;;;;312.42;135.15;;;3.30;99.90;;;;;;5056400;28;20032;-72
2021/12/09 06:17:24;;;;;;;101.15;47.28;;;3.30;99.90;;;;;;5056147;28;20025;-73
2021/12/09 06:19:49;;;;;;;86.45;40.50;;;3.30;99.90;;;;;;5055851;28;20048;-72
2021/12/09 06:22:15;;;;;;;90.20;40.35;;;3.40;99.90;;;;;;5056891;28;20021;-72
2021/12/09 06:24:41;;;;;;;118.72;53.95;;;3.50;99.90;;;;;;5056963;28;20424;-72
2021/12/09 06:27:07;;;;;;;136.30;61.60;;;3.50;99.90;;;;;;5056699;28;20021;-72
2021/12/09 06:29:34;;;;;;;143.90;63.47;;;3.50;99.90;;;;;;5056387;28;20033;-72
2021/12/09 06:32:00;;;;;;;142.15;63.05;;;3.60;99.90;;;;;;5056590;28;20025;-72
2021/12/09 06:34:26;;;;;;;141.15;65.63;;;3.60;99.90;;;;;;5056479;28;20021;-72
2021/12/09 06:36:53;;;;;;;150.35;66.25;;;3.60;99.90;;;;;;5056582;28;20021;-72
2021/12/09 06:39:18;;;;;;;133.75;61.67;;;3.70;99.90;;;;;;5056180;28;20108;-72
2021/12/09 06:41:45;;;;;;;115.35;50.80;;;3.70;99.90;;;;;;5055772;28;20132;-72
2021/12/09 06:44:11;;;;;;;117.82;55.15;;;3.70;99.90;;;;;;5056492;28;20059;-72
2021/12/09 06:46:37;;;;;;;143.13;62.55;;;3.80;99.90;;;;;;5056319;28;20025;-72
2021/12/09 06:49:04;;;;;;;134.45;60.45;;;3.80;99.90;;;;;;5056064;28;20063;-72
2021/12/09 06:51:30;;;;;;;153.60;72.40;;;3.90;99.90;;;;;;5056162;28;20021;-72
2021/12/09 06:53:56;;;;;;;117.68;56.85;;;4.00;99.90;;;;;;5056307;28;20505;-72
2021/12/09 06:56:24;;;;;;;121.90;54.25;;;4.10;99.90;;;;;;5056073;28;20440;-72
2021/12/09 06:58:49;;;;;;;116.22;55.70;;;4.10;99.90;;;;;;5056062;28;20032;-72
2021/12/09 07:01:16;;;;;;;133.57;61.60;;;4.20;99.90;;;;;;5056153;28;20032;-72
2021/12/09 07:03:41;;;;;;;146.93;69.07;;;4.20;99.90;;;;;;5055520;28;20403;-73
2021/12/09 07:06:11;;;;;;;138.80;66.28;;;4.20;99.90;;;;;;5055936;28;20021;-73
2021/12/09 07:08:44;;;;;;;130.00;62.75;;;4.20;99.90;;;;;;5055918;28;20043;-73
2021/12/09 07:11:11;;;;;;;87.18;43.03;;;4.30;99.90;;;;;;5055699;28;20037;-73
2021/12/09 07:13:37;;;;;;;80.38;36.28;;;4.40;99.90;;;;;;5055485;28;20020;-73
2021/12/09 07:16:03;;;;;;;61.63;29.08;;;4.60;99.90;;;;;;5055749;28;20017;-73
2021/12/09 07:18:30;;;;;;;119.13;46.97;;;4.70;99.90;;;;;;5055865;28;20104;-73
2021/12/09 07:20:56;;;;;;;133.05;50.47;;;4.80;99.90;;;;;;5055715;28;20078;-73
2021/12/09 07:23:22;;;;;;;89.70;41.60;;;5.00;99.90;;;;;;5055203;28;20372;-73
2021/12/09 07:25:48;;;;;;;129.00;54.88;;;5.00;99.90;;;;;;5055501;28;20367;-73
2021/12/09 07:28:15;;;;;;;153.68;66.63;;;5.00;99.90;;;;;;5055527;28;20021;-73
2021/12/09 07:30:41;;;;;;;144.30;62.28;;;5.10;99.90;;;;;;5055305;28;20025;-73
2021/12/09 07:33:07;;;;;;;131.25;59.35;;;5.10;99.90;;;;;;5055619;28;20056;-73
2021/12/09 07:35:33;;;;;;;135.88;60.05;;;5.10;99.90;;;;;;5055643;28;20017;-73
2021/12/09 07:38:04;;;;;;;106.97;48.55;;;5.10;99.90;;;;;;5055089;28;20032;-73
2021/12/09 07:40:30;;;;;;;122.85;50.53;;;5.20;99.90;;;;;;5055060;28;20538;-73
2021/12/09 07:42:56;;;;;;;115.70;46.88;;;5.20;99.90;;;;;;5055476;28;20041;-73
2021/12/09 07:45:22;;;;;;;121.97;51.58;;;5.20;99.90;;;;;;5055127;28;20027;-73
2021/12/09 07:47:49;;;;;;;125.82;55.50;;;5.20;99.90;;;;;;5055275;28;20359;-73
2021/12/09 07:50:18;;;;;;;75.32;33.90;;;5.20;99.90;;;;;;5055141;28;20061;-73
2021/12/09 07:52:47;;;;;;;70.30;36.60;;;5.20;99.90;;;;;;5054611;28;20032;-73
2021/12/09 07:55:14;;;;;;;80.30;36.38;;;5.20;99.90;;;;;;5055091;28;20017;-73
2021/12/09 07:57:40;;;;;;;73.28;34.10;;;5.10;99.90;;;;;;5054672;28;20663;-73
2021/12/09 08:00:12;;;;;;;108.38;41.05;;;5.10;99.90;;;;;;5054645;28;20021;-73
2021/12/09 08:02:41;;;;;;;90.75;39.90;;;5.00;99.90;;;;;;5054601;28;20057;-73
2021/12/09 08:05:09;;;;;;;104.80;44.20;;;5.10;99.90;;;;;;5054737;28;20057;-73
2021/12/09 08:07:35;;;;;;;133.98;57.80;;;5.10;99.90;;;;;;5054850;28;20052;-73
2021/12/09 08:10:01;;;;;;;97.40;40.33;;;5.10;99.90;;;;;;5054582;28;20421;-73
2021/12/09 08:12:27;;;;;;;74.07;35.47;;;5.10;99.90;;;;;;5054294;28;20021;-73
2021/12/09 08:14:53;;;;;;;123.38;52.03;;;5.10;99.90;;;;;;5054797;28;20341;-73
2021/12/09 08:20:08;;;;;;;88.80;37.95;;;5.20;99.90;;;;;;5054503;28;20029;-73
2021/12/09 08:22:34;;;;;;;118.60;49.00;;;5.20;99.90;;;;;;5054470;28;20023;-73
2021/12/09 08:25:01;;;;;;;89.05;41.33;;;5.20;99.90;;;;;;5054232;28;20025;-73
2021/12/09 08:27:29;;;;;;;91.20;39.25;;;5.20;99.90;;;;;;5054057;28;20071;-73
2021/12/09 08:29:55;;;;;;;86.15;40.25;;;5.30;99.90;;;;;;5054324;28;20068;-73
2021/12/09 08:32:21;;;;;;;75.70;38.00;;;5.30;99.90;;;;;;5054473;28;20031;-73
2021/12/09 08:34:47;;;;;;;78.60;38.25;;;5.40;99.90;;;;;;5053923;28;20077;-73
2021/12/09 08:37:13;;;;;;;124.53;65.18;;;5.50;99.90;;;;;;5054304;28;20049;-73
2021/12/09 08:39:38;;;;;;;83.50;42.30;;;5.50;99.90;;;;;;5054320;28;20451;-73
2021/12/09 08:42:05;;;;;;;66.68;33.28;;;5.50;99.90;;;;;;5054018;28;20049;-73
2021/12/09 08:44:30;;;;;;;64.53;28.70;;;5.60;99.90;;;;;;5054130;28;20452;-73
2021/12/09 08:46:56;;;;;;;42.35;20.50;;;5.60;99.90;;;;;;5053704;28;20029;-73
2021/12/09 08:49:22;;;;;;;56.22;26.08;;;5.70;99.90;;;;;;5053770;28;20031;-73
2021/12/09 08:51:48;;;;;;;65.22;28.52;;;5.80;99.90;;;;;;5053771;28;20083;-73
2021/12/09 08:54:15;;;;;;;59.00;25.58;;;5.80;99.90;;;;;;5053574;28;20031;-73
2021/12/09 08:56:41;;;;;;;65.22;31.08;;;5.80;99.90;;;;;;5053748;28;20049;-73
2021/12/09 08:59:07;;;;;;;66.03;30.20;;;5.90;99.90;;;;;;5053677;28;20064;-73
2021/12/09 09:01:34;;;;;;;66.80;37.53;;;5.90;99.90;;;;;;5053743;28;20021;-73
2021/12/09 09:04:01;;;;;;;69.07;32.17;;;6.00;99.90;;;;;;5054004;28;20013;-73
2021/12/09 09:06:29;;;;;;;60.63;31.38;;;6.10;99.90;;;;;;5053809;28;20012;-73
2021/12/09 09:08:58;;;;;;;64.28;30.15;;;6.20;99.90;;;;;;5053011;28;20364;-73
2021/12/09 09:11:25;;;;;;;73.78;36.22;;;6.20;99.90;;;;;;5052766;28;20048;-73
2021/12/09 09:13:51;;;;;;;111.45;53.70;;;6.20;99.90;;;;;;5053669;28;20020;-73
2021/12/09 09:16:18;;;;;;;138.65;64.90;;;6.20;99.90;;;;;;5053742;28;20028;-73
2021/12/09 09:18:44;;;;;;;305.27;140.27;;;6.20;99.90;;;;;;5053872;28;20075;-70
2021/12/09 09:21:10;;;;;;;465.30;217.40;;;6.20;99.90;;;;;;5053544;28;20099;-70
2021/12/09 09:23:36;;;;;;;392.25;189.02;;;6.30;99.90;;;;;;5053296;28;20113;-83
2021/12/09 09:26:04;;;;;;;168.77;102.90;;;6.30;99.90;;;;;;5052283;28;20032;-81
2021/12/09 09:28:29;;;;;;;62.55;29.13;;;6.40;99.90;;;;;;5053352;28;20025;-83
2021/12/09 09:30:57;;;;;;;83.75;34.50;;;6.50;99.90;;;;;;5053169;28;20036;-80
2021/12/09 09:33:29;;;;;;;76.63;37.63;;;6.80;99.90;;;;;;5053593;28;20096;-79
2021/12/09 09:35:55;;;;;;;;;;;6.90;99.90;;;;;;5053611;28;20128;-80
2021/12/09 09:38:22;;;;;;;56.28;26.58;;;6.90;99.90;;;;;;5053625;28;19995;-81
2021/12/09 09:41:02;;;;;;;60.75;32.35;;;6.90;99.90;;;;;;5053643;28;20444;-79
2021/12/09 09:43:43;;;;;;;58.92;26.13;;;7.00;99.90;;;;;;5053465;28;20029;-78
2021/12/09 09:46:13;;;;;;;77.88;31.52;;;7.10;99.90;;;;;;5053749;28;20051;-78
2021/12/09 09:48:39;;;;;;;70.47;32.67;;;7.10;99.90;;;;;;5053460;28;20025;-78
2021/12/09 09:51:07;;;;;;;65.18;30.48;;;7.10;99.90;;;;;;5053172;28;20036;-80
2021/12/09 09:53:34;;;;;;;58.15;28.40;;;7.20;99.90;;;;;;5053262;28;20021;-81
2021/12/09 09:56:00;;;;;;;55.08;25.70;;;7.70;99.90;;;;;;5052178;28;20463;-81
2021/12/09 09:58:26;;;;;;;75.13;28.08;;;7.70;99.90;;;;;;5051771;28;20028;-82
2021/12/09 10:00:53;;;;;;;63.30;29.95;;;7.70;99.90;;;;;;5053717;28;20029;-81
2021/12/09 10:03:19;;;;;;;124.10;32.17;;;7.70;99.90;;;;;;5053702;28;20025;-82
2021/12/09 10:05:50;;;;;;;99.20;32.10;;;7.70;99.90;;;;;;5051829;28;20035;-78
2021/12/09 10:08:17;;;;;;;65.43;28.60;;;7.80;99.90;;;;;;5051491;28;20017;-76
2021/12/09 10:10:46;;;;;;;254.15;103.13;;;7.70;99.90;;;;;;5052792;28;20025;-77
2021/12/09 10:13:14;;;;;;;324.35;131.60;;;7.60;99.90;;;;;;5053001;28;20014;-78
2021/12/09 10:15:47;;;;;;;277.25;107.50;;;7.50;99.90;;;;;;5052850;28;20078;-77
2021/12/09 10:18:30;;;;;;;333.92;143.13;;;7.40;99.90;;;;;;5052954;28;20043;-77
2021/12/09 10:20:56;;;;;;;380.00;161.80;;;7.50;99.90;;;;;;5053116;28;20033;-77
2021/12/09 10:23:35;;;;;;;151.07;63.83;;;7.40;99.90;;;;;;5056506;28;20020;-77
2021/12/09 10:26:19;;;;;;;111.43;44.40;;;7.30;99.90;;;;;;5055237;28;20032;-78
2021/12/09 10:29:09;;;;;;;460.13;194.63;;;7.20;99.90;;;;;;5053828;28;20075;-78
2021/12/09 10:31:46;;;;;;;312.80;126.72;;;7.20;99.90;;;;;;5053006;28;20135;-78
2021/12/09 10:34:18;;;;;;;318.58;133.13;;;7.20;99.90;;;;;;5056375;28;20071;-78
2021/12/09 10:36:49;;;;;;;320.73;155.27;;;7.10;99.90;;;;;;5055073;28;20471;-79
2021/12/09 10:39:19;;;;;;;227.85;112.30;;;7.20;99.90;;;;;;5055912;28;20036;-78
2021/12/09 10:41:45;;;;;;;216.40;104.63;;;7.20;99.90;;;;;;5056212;28;20162;-78
2021/12/09 10:44:12;;;;;;;129.38;57.17;;;7.20;99.90;;;;;;5054805;28;20112;-79
2021/12/09 10:47:13;;;;;;;157.93;68.32;;;7.20;99.90;;;;;;5055987;28;20078;-77
2021/12/09 10:49:48;;;;;;;208.88;87.30;;;7.30;99.90;;;;;;5055083;28;20045;-78
2021/12/09 10:52:20;;;;;;;303.23;132.55;;;7.20;99.90;;;;;;5056487;28;20025;-77
2021/12/09 10:54:45;;;;;;;164.40;69.18;;;7.30;99.90;;;;;;5056097;28;20017;-77
2021/12/09 10:57:27;;;;;;;202.88;107.05;;;7.30;99.90;;;;;;5055805;28;20036;-78
2021/12/09 10:59:53;;;;;;;237.82;109.40;;;7.30;99.90;;;;;;5055708;28;20029;-73
2021/12/09 11:02:19;;;;;;;249.07;94.28;;;7.20;99.90;;;;;;5056166;28;20032;-73
2021/12/09 11:05:06;;;;;;;213.05;88.85;;;7.30;99.90;;;;;;5055480;28;20025;-73
2021/12/09 11:07:33;;;;;;;211.10;84.45;;;7.30;99.90;;;;;;5055656;28;20028;-73
2021/12/09 11:10:23;;;;;;;150.25;66.78;;;7.30;99.90;;;;;;5055708;28;20119;-72
2021/12/09 11:12:58;;;;;;;144.88;58.38;;;7.30;99.90;;;;;;5055683;28;20029;-73
2021/12/09 11:15:48;;;;;;;203.07;79.25;;;7.40;99.90;;;;;;5055290;28;20048;-73
2021/12/09 11:18:34;;;;;;;146.95;65.50;;;7.40;99.90;;;;;;5054978;28;20021;-73
2021/12/09 11:21:08;;;;;;;207.90;88.13;;;7.50;99.90;;;;;;5055205;28;20075;-73
2021/12/09 11:23:36;;;;;;;149.07;62.20;;;7.60;99.90;;;;;;5055181;28;20059;-73
2021/12/09 11:26:33;;;;;;;200.82;80.50;;;7.70;99.90;;;;;;5055435;28;20134;-73
2021/12/09 11:29:07;;;;;;;488.63;190.00;;;7.80;99.90;;;;;;5055230;28;20021;-73
2021/12/09 11:31:49;;;;;;;268.67;100.75;;;7.80;99.90;;;;;;5055313;28;20112;-73
2021/12/09 11:34:19;;;;;;;180.40;79.85;;;7.80;99.90;;;;;;5054811;28;20043;-74
2021/12/09 11:36:47;;;;;;;69.93;35.15;;;7.80;99.90;;;;;;5054789;28;20060;-73
2021/12/09 11:39:20;;;;;;;110.97;55.60;;;7.80;99.90;;;;;;5054789;28;20040;-73
2021/12/09 11:41:47;;;;;;;114.93;55.83;;;7.70;99.90;;;;;;5054485;28;20110;-73
2021/12/09 11:44:15;;;;;;;94.00;46.78;;;7.80;99.90;;;;;;5054826;28;20474;-73
2021/12/09 11:46:43;;;;;;;122.38;61.85;;;7.80;99.90;;;;;;5055038;28;20024;-73
2021/12/09 11:49:10;;;;;;;197.93;69.60;;;7.80;99.90;;;;;;5054743;28;20025;-73
2021/12/09 11:51:37;;;;;;;167.55;68.30;;;7.70;99.90;;;;;;5054670;28;20070;-73
2021/12/09 11:54:06;;;;;;;635.53;323.52;;;7.70;99.90;;;;;;5054842;28;20017;-73
2021/12/09 12:08:01;;;;;;;407.30;173.93;;;7.60;99.90;;;;;;5054380;28;20083;-74
2021/12/09 12:13:44;;;;;;;1094.15;536.65;;;7.60;99.90;;;;;;5052020;28;20032;-74
2021/12/09 12:19:26;;;;;;;543.00;280.92;;;7.40;99.90;;;;;;5052210;28;20025;-74
2021/12/09 12:27:15;;;;;;;211.38;105.07;;;7.30;99.90;;;;;;5052068;28;20025;-74
2021/12/09 12:30:22;;;;;;;236.63;121.88;;;7.30;99.90;;;;;;5051816;28;20112;-74
2021/12/09 12:36:26;;;;;;;154.65;75.13;;;7.20;99.90;;;;;;5051637;28;20043;-74
2021/12/09 12:38:51;;;;;;;135.73;68.53;;;7.20;99.90;;;;;;5051398;28;20108;-74
2021/12/09 12:41:19;;;;;;;157.27;76.25;;;7.20;99.90;;;;;;5051370;28;20040;-73
2021/12/09 12:43:55;;;;;;;164.73;75.85;;;7.20;99.90;;;;;;5051622;28;20087;-74
2021/12/09 12:49:21;;;;;;;207.38;78.47;;;7.20;99.90;;;;;;5053895;28;20036;-73
2021/12/09 12:51:59;;;;;;;146.02;63.78;;;7.30;99.90;;;;;;5053475;28;20100;-74
2021/12/09 12:57:34;;;;;;;96.53;45.65;;;7.30;99.90;;;;;;5053808;28;20020;-73
2021/12/09 13:00:25;;;;;;;114.97;53.67;;;7.30;99.90;;;;;;5053359;28;20017;-73
2021/12/09 13:19:20;;;;;;;173.32;82.70;;;7.10;99.90;;;;;;5053660;28;20024;-73
2021/12/09 13:21:55;;;;;;;133.70;63.92;;;7.10;99.90;;;;;;5053394;28;20096;-73
2021/12/09 13:24:46;;;;;;;111.47;53.47;;;7.20;99.90;;;;;;5053022;28;20440;-73
2021/12/09 13:30:01;;;;;;;104.47;51.20;;;7.20;99.90;;;;;;5053055;28;20025;-74
2021/12/09 13:33:14;;;;;;;98.68;48.83;;;7.10;99.90;;;;;;5053322;28;20134;-73
2021/12/09 13:50:16;;;;;;;139.48;64.45;;;7.10;99.90;;;;;;5052938;28;20040;-74
2021/12/09 13:55:29;;;;;;;128.13;57.92;;;7.10;99.90;;;;;;5052957;28;20032;-74